sensor_id;sensor_type;location;lat;lon;timestamp;temperature;humidity
20858;DHT22;10589;53.636;10.012;2023-11-19T04:46:52;6.50;99.90
20858;DHT22;10589;53.636;10.012;2023-11-19T04:49:17;6.50;99.90
20858;DHT22;10589;53.636;10.012;2023-11-19T04:51:45;6.50;99.90
20858;DHT22;10589;53.636;10.012;2023-11-19T04:54:13;6.60;99.90
20858;DHT22;10589;53.636;10.012;2023-11-19T04:56:39;6.60;99.90
20858;DHT22;10589;53.636;10.012;2023-11-19T04:59:05;6.60;99.90
20858;DHT22;10589;53.636;10.012;2023-11-19T05:01:35;6.60;99.90
20858;DHT22;10589;53.636;10.012;2023-11-19T05:04:01;6.60;99.90
20858;DHT22;10589;53.636;10.012;2023-11-19T05:06:30;6.60;99.90
20858;DHT22;10589;53.636;10.012;2023-11-19T05:08:58;6.70;99.90
20858;DHT22;10589;53.636;10.012;2023-11-19T05:11:24;6.70;99.90
20858;DHT22;10589;53.636;10.012;2023-11-19T05:13:49;6.70;99.90
20858;DHT22;10589;53.636;10.012;2023-11-19T05:16:16;6.70;99.90
20858;DHT22;10589;53.636;10.012;2023-11-19T05:18:43;6.80;99.90
20858;DHT22;10589;53.636;10.012;2023-11-19T05:21:08;6.80;99.90
20858;DHT22;10589;53.636;10.012;2023-11-19T05:23:34;6.80;99.90
20858;DHT22;10589;53.636;10.012;2023-11-19T05:26:03;6.90;99.90
20858;DHT22;10589;53.636;10.012;2023-11-19T05:28:29;7.00;99.90
20858;DHT22;10589;53.636;10.012;2023-11-19T05:30:55;6.90;99.90
20858;DHT22;10589;53.636;10.012;2023-11-19T05:33:21;7.00;99.90
20858;DHT22;10589;53.636;10.012;2023-11-19T05:35:47;7.00;99.90
20858;DHT22;10589;53.636;10.012;2023-11-19T05:38:13;7.10;99.90
20858;DHT22;10589;53.636;10.012;2023-11-19T05:40:40;7.30;99.90
20858;DHT22;10589;53.636;10.012;2023-11-19T05:43:06;7.30;99.90
20858;DHT22;10589;53.636;10.012;2023-11-19T05:45:32;7.50;99.90
20858;DHT22;10589;53.636;10.012;2023-11-19T05:47:58;7.50;99.90
20858;DHT22;10589;53.636;10.012;2023-11-19T05:50:23;7.60;99.90
20858;DHT22;10589;53.636;10.012;2023-11-19T05:52:49;7.80;99.90
20858;DHT22;10589;53.636;10.012;2023-11-19T05:55:15;7.80;99.90
20858;DHT22;10589;53.636;10.012;2023-11-19T05:57:41;7.90;99.90
20858;DHT22;10589;53.636;10.012;2023-11-19T06:00:07;7.90;99.90
20858;DHT22;10589;53.636;10.012;2023-11-19T06:02:34;8.00;99.90
20858;DHT22;10589;53.636;10.012;2023-11-19T06:05:00;8.10;99.90
20858;DHT22;10589;53.636;10.012;2023-11-19T06:07:27;8.20;99.90
20858;DHT22;10589;53.636;10.012;2023-11-19T06:09:53;8.30;99.90
20858;DHT22;10589;53.636;10.012;2023-11-19T06:12:18;8.30;99.90
20858;DHT22;10589;53.636;10.012;2023-11-19T06:14:44;8.50;99.90
20858;DHT22;10589;53.636;10.012;2023-11-19T06:17:10;8.70;99.90
20858;DHT22;10589;53.636;10.012;2023-11-19T06:19:36;8.90;99.90
20858;DHT22;10589;53.636;10.012;2023-11-19T06:22:03;8.90;99.90
20858;DHT22;10589;53.636;10.012;2023-11-19T06:24:29;9.00;99.90
20858;DHT22;10589;53.636;10.012;2023-11-19T06:26:55;9.20;99.90
20858;DHT22;10589;53.636;10.012;2023-11-19T06:29:20;9.40;99.90
20858;DHT22;10589;53.636;10.012;2023-11-19T06:31:46;9.50;99.90
20858;DHT22;10589;53.636;10.012;2023-11-19T06:34:14;9.50;99.90
20858;DHT22;10589;53.636;10.012;2023-11-19T06:36:40;9.60;99.90
20858;DHT22;10589;53.636;10.012;2023-11-19T06:39:05;9.70;99.90
20858;DHT22;10589;53.636;10.012;2023-11-19T06:41:31;9.80;99.90
20858;DHT22;10589;53.636;10.012;2023-11-19T06:43:57;9.80;99.90
20858;DHT22;10589;53.636;10.012;2023-11-19T06:46:22;9.90;99.90
20858;DHT22;10589;53.636;10.012;2023-11-19T06:48:48;10.10;99.90
20858;DHT22;10589;53.636;10.012;2023-11-19T06:51:13;10.20;99.90
20858;DHT22;10589;53.636;10.012;2023-11-19T06:53:39;10.20;99.90
20858;DHT22;10589;53.636;10.012;2023-11-19T06:56:22;10.30;99.90
20858;DHT22;10589;53.636;10.012;2023-11-19T06:58:49;10.30;99.90
20858;DHT22;10589;53.636;10.012;2023-11-19T07:01:15;10.30;99.90
20858;DHT22;10589;53.636;10.012;2023-11-19T07:03:41;10.40;99.90
20858;DHT22;10589;53.636;10.012;2023-11-19T07:06:07;10.50;99.90
20858;DHT22;10589;53.636;10.012;2023-11-19T07:08:33;10.50;99.90
20858;DHT22;10589;53.636;10.012;2023-11-19T07:10:59;10.50;99.90
20858;DHT22;10589;53.636;10.012;2023-11-19T07:13:25;10.60;99.90
20858;DHT22;10589;53.636;10.012;2023-11-19T07:15:53;10.60;99.90
20858;DHT22;10589;53.636;10.012;2023-11-19T07:18:20;10.60;99.90
20858;DHT22;10589;53.636;10.012;2023-11-19T07:20:47;10.60;99.90
20858;DHT22;10589;53.636;10.012;2023-11-19T07:23:13;10.60;99.90
20858;DHT22;10589;53.636;10.012;2023-11-19T07:25:42;10.70;99.90
20858;DHT22;10589;53.636;10.012;2023-11-19T07:28:08;10.70;99.90
20858;DHT22;10589;53.636;10.012;2023-11-19T07:30:35;10.70;99.90
20858;DHT22;10589;53.636;10.012;2023-11-19T07:33:01;10.70;99.90
20858;DHT22;10589;53.636;10.012;2023-11-19T07:35:29;10.80;99.90
20858;DHT22;10589;53.636;10.012;2023-11-19T07:37:56;10.80;99.90
20858;DHT22;10589;53.636;10.012;2023-11-19T07:40:23;10.80;99.90
20858;DHT22;10589;53.636;10.012;2023-11-19T07:42:50;10.80;99.90
20858;DHT22;10589;53.636;10.012;2023-11-19T07:45:16;10.80;99.90
20858;DHT22;10589;53.636;10.012;2023-11-19T07:47:43;10.80;99.90
20858;DHT22;10589;53.636;10.012;2023-11-19T07:50:11;10.80;99.90
20858;DHT22;10589;53.636;10.012;2023-11-19T07:52:39;10.80;99.90
20858;DHT22;10589;53.636;10.012;2023-11-19T07:55:05;10.90;99.90
20858;DHT22;10589;53.636;10.012;2023-11-19T07:57:31;10.80;99.90
20858;DHT22;10589;53.636;10.012;2023-11-19T07:59:57;10.90;99.90
20858;DHT22;10589;53.636;10.012;2023-11-19T08:02:23;10.90;99.90
20858;DHT22;10589;53.636;10.012;2023-11-19T08:04:49;11.00;99.90
20858;DHT22;10589;53.636;10.012;2023-11-19T08:07:17;11.00;99.90
20858;DHT22;10589;53.636;10.012;2023-11-19T08:09:43;11.10;99.90
20858;DHT22;10589;53.636;10.012;2023-11-19T08:12:09;11.00;99.90
20858;DHT22;10589;53.636;10.012;2023-11-19T08:14:35;11.00;99.90
20858;DHT22;10589;53.636;10.012;2023-11-19T08:17:01;11.00;99.90
20858;DHT22;10589;53.636;10.012;2023-11-19T08:19:26;11.10;99.90
20858;DHT22;10589;53.636;10.012;2023-11-19T08:21:52;11.10;99.90
20858;DHT22;10589;53.636;10.012;2023-11-19T08:24:17;11.10;99.90
20858;DHT22;10589;53.636;10.012;2023-11-19T08:26:43;11.20;99.90
20858;DHT22;10589;53.636;10.012;2023-11-19T08:29:09;11.20;99.90
20858;DHT22;10589;53.636;10.012;2023-11-19T08:31:34;11.30;99.90
20858;DHT22;10589;53.636;10.012;2023-11-19T08:34:00;11.30;99.90
20858;DHT22;10589;53.636;10.012;2023-11-19T08:36:26;11.30;99.90
20858;DHT22;10589;53.636;10.012;2023-11-19T08:38:53;11.40;99.90
20858;DHT22;10589;53.636;10.012;2023-11-19T08:41:20;11.30;99.90
20858;DHT22;10589;53.636;10.012;2023-11-19T08:43:47;11.30;99.90
20858;DHT22;10589;53.636;10.012;2023-11-19T08:46:12;11.40;99.90
20858;DHT22;10589;53.636;10.012;2023-11-19T08:48:38;11.40;99.90
20858;DHT22;10589;53.636;10.012;2023-11-19T08:51:04;11.40;99.90
20858;DHT22;10589;53.636;10.012;2023-11-19T08:53:30;11.40;99.90
20858;DHT22;10589;53.636;10.012;2023-11-19T08:55:55;11.40;99.90
20858;DHT22;10589;53.636;10.012;2023-11-19T08:58:21;11.40;99.90
20858;DHT22;10589;53.636;10.012;2023-11-19T09:00:47;11.40;99.90
20858;DHT22;10589;53.636;10.012;2023-11-19T09:03:12;11.40;99.90
20858;DHT22;10589;53.636;10.012;2023-11-19T09:05:38;11.40;99.90
20858;DHT22;10589;53.636;10.012;2023-11-19T09:08:04;11.30;99.90
20858;DHT22;10589;53.636;10.012;2023-11-19T09:10:30;11.30;99.90
20858;DHT22;10589;53.636;10.012;2023-11-19T09:12:55;11.30;99.90
20858;DHT22;10589;53.636;10.012;2023-11-19T09:15:21;11.20;99.90
20858;DHT22;10589;53.636;10.012;2023-11-19T09:17:46;11.20;99.90
20858;DHT22;10589;53.636;10.012;2023-11-19T09:20:12;11.30;99.90
20858;DHT22;10589;53.636;10.012;2023-11-19T09:22:41;11.30;99.90
20858;DHT22;10589;53.636;10.012;2023-11-19T09:25:07;11.30;99.90
20858;DHT22;10589;53.636;10.012;2023-11-19T09:27:32;11.30;99.90
20858;DHT22;10589;53.636;10.012;2023-11-19T09:29:58;11.40;99.90
20858;DHT22;10589;53.636;10.012;2023-11-19T09:32:24;11.40;99.90
20858;DHT22;10589;53.636;10.012;2023-11-19T09:34:50;11.30;99.90
20858;DHT22;10589;53.636;10.012;2023-11-19T09:37:16;11.30;99.90
20858;DHT22;10589;53.636;10.012;2023-11-19T09:39:42;11.40;99.90
20858;DHT22;10589;53.636;10.012;2023-11-19T09:42:10;11.40;99.90
20858;DHT22;10589;53.636;10.012;2023-11-19T09:44:38;11.50;99.90
20858;DHT22;10589;53.636;10.012;2023-11-19T09:47:05;11.50;99.90
20858;DHT22;10589;53.636;10.012;2023-11-19T09:49:32;11.50;99.90
20858;DHT22;10589;53.636;10.012;2023-11-19T09:51:58;11.50;99.90
20858;DHT22;10589;53.636;10.012;2023-11-19T09:54:24;11.60;99.90
20858;DHT22;10589;53.636;10.012;2023-11-19T09:56:50;11.70;99.90
20858;DHT22;10589;53.636;10.012;2023-11-19T09:59:16;11.70;99.90
20858;DHT22;10589;53.636;10.012;2023-11-19T10:01:43;11.70;99.90
20858;DHT22;10589;53.636;10.012;2023-11-19T10:04:13;11.80;99.90
20858;DHT22;10589;53.636;10.012;2023-11-19T10:06:41;11.80;99.90
20858;DHT22;10589;53.636;10.012;2023-11-19T10:09:07;11.90;99.90
20858;DHT22;10589;53.636;10.012;2023-11-19T10:11:33;12.00;99.90
20858;DHT22;10589;53.636;10.012;2023-11-19T10:13:59;12.20;99.90
20858;DHT22;10589;53.636;10.012;2023-11-19T10:16:29;12.40;99.90
20858;DHT22;10589;53.636;10.012;2023-11-19T10:18:56;12.30;99.90
20858;DHT22;10589;53.636;10.012;2023-11-19T10:21:21;12.20;99.90
20858;DHT22;10589;53.636;10.012;2023-11-19T10:23:52;12.10;99.90
20858;DHT22;10589;53.636;10.012;2023-11-19T10:26:19;12.00;99.90
20858;DHT22;10589;53.636;10.012;2023-11-19T10:28:48;11.90;99.90
20858;DHT22;10589;53.636;10.012;2023-11-19T10:31:18;11.90;99.90
20858;DHT22;10589;53.636;10.012;2023-11-19T10:33:44;11.80;99.90
20858;DHT22;10589;53.636;10.012;2023-11-19T10:36:14;11.80;99.90
20858;DHT22;10589;53.636;10.012;2023-11-19T10:38:40;11.80;99.90
20858;DHT22;10589;53.636;10.012;2023-11-19T10:41:06;11.90;99.90
20858;DHT22;10589;53.636;10.012;2023-11-19T10:43:45;11.90;99.90
20858;DHT22;10589;53.636;10.012;2023-11-19T10:46:12;12.00;99.90
20858;DHT22;10589;53.636;10.012;2023-11-19T10:48:38;12.00;99.90
20858;DHT22;10589;53.636;10.012;2023-11-19T10:51:06;11.90;99.90
20858;DHT22;10589;53.636;10.012;2023-11-19T10:53:37;11.90;99.90
20858;DHT22;10589;53.636;10.012;2023-11-19T10:56:06;11.80;99.90
20858;DHT22;10589;53.636;10.012;2023-11-19T10:58:36;11.70;99.90
20858;DHT22;10589;53.636;10.012;2023-11-19T11:01:11;11.60;99.90
20858;DHT22;10589;53.636;10.012;2023-11-19T11:03:42;11.60;99.90
20858;DHT22;10589;53.636;10.012;2023-11-19T11:06:13;11.60;99.90
20858;DHT22;10589;53.636;10.012;2023-11-19T11:08:39;11.70;99.90
20858;DHT22;10589;53.636;10.012;2023-11-19T11:11:05;11.70;99.90
20858;DHT22;10589;53.636;10.012;2023-11-19T11:13:33;11.70;99.90
20858;DHT22;10589;53.636;10.012;2023-11-19T11:15:59;11.70;99.90
20858;DHT22;10589;53.636;10.012;2023-11-19T11:18:26;11.60;99.90
20858;DHT22;10589;53.636;10.012;2023-11-19T11:21:17;11.60;99.90
20858;DHT22;10589;53.636;10.012;2023-11-19T11:24:12;11.60;99.90
20858;DHT22;10589;53.636;10.012;2023-11-19T11:29:46;11.60;99.90
20858;DHT22;10589;53.636;10.012;2023-11-19T11:38:02;11.90;99.90
20858;DHT22;10589;53.636;10.012;2023-11-19T11:40:28;11.90;99.90
20858;DHT22;10589;53.636;10.012;2023-11-19T11:42:54;12.10;99.90
20858;DHT22;10589;53.636;10.012;2023-11-19T11:45:36;12.20;99.90
20858;DHT22;10589;53.636;10.012;2023-11-19T11:48:09;12.20;99.90
20858;DHT22;10589;53.636;10.012;2023-11-19T11:50:47;12.10;99.90
20858;DHT22;10589;53.636;10.012;2023-11-19T11:53:13;12.10;99.90
20858;DHT22;10589;53.636;10.012;2023-11-19T11:58:17;11.90;99.90
20858;DHT22;10589;53.636;10.012;2023-11-19T12:00:42;11.80;99.90
20858;DHT22;10589;53.636;10.012;2023-11-19T12:03:09;11.60;99.90
20858;DHT22;10589;53.636;10.012;2023-11-19T12:05:45;11.60;99.90
20858;DHT22;10589;53.636;10.012;2023-11-19T12:08:12;11.70;99.90
20858;DHT22;10589;53.636;10.012;2023-11-19T12:10:51;11.60;99.90
20858;DHT22;10589;53.636;10.012;2023-11-19T12:13:18;11.70;99.90
20858;DHT22;10589;53.636;10.012;2023-11-19T12:18:31;11.80;99.90
20858;DHT22;10589;53.636;10.012;2023-11-19T12:20:58;11.80;99.90
20858;DHT22;10589;53.636;10.012;2023-11-19T12:23:29;11.80;99.90
20858;DHT22;10589;53.636;10.012;2023-11-19T12:25:55;11.70;99.90
20858;DHT22;10589;53.636;10.012;2023-11-19T12:28:20;11.70;99.90
20858;DHT22;10589;53.636;10.012;2023-11-19T12:30:46;11.60;99.90
20858;DHT22;10589;53.636;10.012;2023-11-19T12:33:15;11.60;99.90
20858;DHT22;10589;53.636;10.012;2023-11-19T12:35:43;11.70;99.90
20858;DHT22;10589;53.636;10.012;2023-11-19T12:38:21;11.70;99.90
20858;DHT22;10589;53.636;10.012;2023-11-19T12:40:48;11.70;99.90
20858;DHT22;10589;53.636;10.012;2023-11-19T12:43:27;11.80;99.90
20858;DHT22;10589;53.636;10.012;2023-11-19T12:45:53;11.70;99.90
20858;DHT22;10589;53.636;10.012;2023-11-19T12:48:19;11.60;99.90
20858;DHT22;10589;53.636;10.012;2023-11-19T12:50:57;11.50;99.90
20858;DHT22;10589;53.636;10.012;2023-11-19T12:53:25;11.50;99.90
20858;DHT22;10589;53.636;10.012;2023-11-19T12:55:53;11.40;99.90
20858;DHT22;10589;53.636;10.012;2023-11-19T12:58:32;11.50;99.90
20858;DHT22;10589;53.636;10.012;2023-11-19T13:01:05;11.50;99.90
20858;DHT22;10589;53.636;10.012;2023-11-19T13:03:33;11.50;99.90
20858;DHT22;10589;53.636;10.012;2023-11-19T13:06:05;11.50;99.90
20858;DHT22;10589;53.636;10.012;2023-11-19T13:08:47;11.50;99.90
20858;DHT22;10589;53.636;10.012;2023-11-19T13:11:34;11.40;99.90
20858;DHT22;10589;53.636;10.012;2023-11-19T13:14:04;11.40;99.90
20858;DHT22;10589;53.636;10.012;2023-11-19T13:16:31;11.50;99.90
20858;DHT22;10589;53.636;10.012;2023-11-19T13:18:57;11.50;99.90
20858;DHT22;10589;53.636;10.012;2023-11-19T13:21:24;11.50;99.90
20858;DHT22;10589;53.636;10.012;2023-11-19T13:23:50;11.50;99.90
20858;DHT22;10589;53.636;10.012;2023-11-19T13:26:16;11.50;99.90
20858;DHT22;10589;53.636;10.012;2023-11-19T13:28:41;11.60;99.90
20858;DHT22;10589;53.636;10.012;2023-11-19T13:31:07;11.60;99.90
20858;DHT22;10589;53.636;10.012;2023-11-19T13:33:34;11.60;99.90
20858;DHT22;10589;53.636;10.012;2023-11-19T13:35:59;11.60;99.90
20858;DHT22;10589;53.636;10.012;2023-11-19T13:38:31;11.70;99.90
20858;DHT22;10589;53.636;10.012;2023-11-19T13:40:57;11.60;99.90
20858;DHT22;10589;53.636;10.012;2023-11-19T13:43:24;11.50;99.90
20858;DHT22;10589;53.636;10.012;2023-11-19T13:45:49;11.50;99.90
20858;DHT22;10589;53.636;10.012;2023-11-19T13:48:16;11.50;99.90
20858;DHT22;10589;53.636;10.012;2023-11-19T13:50:42;11.50;99.90
20858;DHT22;10589;53.636;10.012;2023-11-19T13:53:07;11.50;99.90
20858;DHT22;10589;53.636;10.012;2023-11-19T13:55:33;11.50;99.90
20858;DHT22;10589;53.636;10.012;2023-11-19T13:57:59;11.40;99.90
20858;DHT22;10589;53.636;10.012;2023-11-19T14:00:25;11.40;99.90
20858;DHT22;10589;53.636;10.012;2023-11-19T14:02:51;11.40;99.90
20858;DHT22;10589;53.636;10.012;2023-11-19T14:05:17;11.40;99.90
20858;DHT22;10589;53.636;10.012;2023-11-19T14:07:43;11.50;99.90
20858;DHT22;10589;53.636;10.012;2023-11-19T14:10:10;11.40;99.90
20858;DHT22;10589;53.636;10.012;2023-11-19T14:12:37;11.40;99.90
20858;DHT22;10589;53.636;10.012;2023-11-19T14:15:03;11.40;99.90
20858;DHT22;10589;53.636;10.012;2023-11-19T14:17:31;11.40;99.90
20858;DHT22;10589;53.636;10.012;2023-11-19T14:19:56;11.40;99.90
20858;DHT22;10589;53.636;10.012;2023-11-19T14:22:22;11.40;99.90
20858;DHT22;10589;53.636;10.012;2023-11-19T14:24:48;11.40;99.90
20858;DHT22;10589;53.636;10.012;2023-11-19T14:27:13;11.30;99.90
20858;DHT22;10589;53.636;10.012;2023-11-19T14:29:39;11.20;99.90
20858;DHT22;10589;53.636;10.012;2023-11-19T14:32:05;11.10;99.90
20858;DHT22;10589;53.636;10.012;2023-11-19T14:34:32;11.10;99.90
20858;DHT22;10589;53.636;10.012;2023-11-19T14:36:58;11.10;99.90
20858;DHT22;10589;53.636;10.012;2023-11-19T14:39:24;11.00;99.90
20858;DHT22;10589;53.636;10.012;2023-11-19T14:41:50;11.10;99.90
20858;DHT22;10589;53.636;10.012;2023-11-19T14:44:16;10.90;99.90
20858;DHT22;10589;53.636;10.012;2023-11-19T14:46:42;10.90;99.90
20858;DHT22;10589;53.636;10.012;2023-11-19T14:49:07;10.80;99.90
20858;DHT22;10589;53.636;10.012;2023-11-19T14:51:39;10.60;99.90
20858;DHT22;10589;53.636;10.012;2023-11-19T14:54:05;10.40;99.90
20858;DHT22;10589;53.636;10.012;2023-11-19T14:56:31;10.30;99.90
20858;DHT22;10589;53.636;10.012;2023-11-19T14:58:56;10.20;99.90
20858;DHT22;10589;53.636;10.012;2023-11-19T15:01:22;10.20;99.90
20858;DHT22;10589;53.636;10.012;2023-11-19T15:03:48;10.10;99.90
20858;DHT22;10589;53.636;10.012;2023-11-19T15:06:13;10.10;99.90
20858;DHT22;10589;53.636;10.012;2023-11-19T15:08:40;10.10;99.90
20858;DHT22;10589;53.636;10.012;2023-11-19T15:11:07;10.00;99.90
20858;DHT22;10589;53.636;10.012;2023-11-19T15:13:34;10.00;99.90
20858;DHT22;10589;53.636;10.012;2023-11-19T15:16:02;10.00;99.90
20858;DHT22;10589;53.636;10.012;2023-11-19T15:18:27;10.00;99.90
20858;DHT22;10589;53.636;10.012;2023-11-19T15:20:53;9.90;99.90
20858;DHT22;10589;53.636;10.012;2023-11-19T15:23:18;9.90;99.90
20858;DHT22;10589;53.636;10.012;2023-11-19T15:25:45;9.90;99.90
20858;DHT22;10589;53.636;10.012;2023-11-19T15:28:10;9.80;99.90
20858;DHT22;10589;53.636;10.012;2023-11-19T15:30:37;9.80;99.90
20858;DHT22;10589;53.636;10.012;2023-11-19T15:33:02;9.80;99.90
20858;DHT22;10589;53.636;10.012;2023-11-19T15:35:28;9.80;99.90
20858;DHT22;10589;53.636;10.012;2023-11-19T15:37:53;9.80;99.90
20858;DHT22;10589;53.636;10.012;2023-11-19T15:40:21;9.80;99.90
20858;DHT22;10589;53.636;10.012;2023-11-19T15:42:46;9.80;99.90
20858;DHT22;10589;53.636;10.012;2023-11-19T15:45:13;9.80;99.90
20858;DHT22;10589;53.636;10.012;2023-11-19T15:47:39;9.90;99.90
20858;DHT22;10589;53.636;10.012;2023-11-19T15:50:06;9.90;99.90
20858;DHT22;10589;53.636;10.012;2023-11-19T15:52:32;9.90;99.90
20858;DHT22;10589;53.636;10.012;2023-11-19T15:54:58;9.90;99.90
20858;DHT22;10589;53.636;10.012;2023-11-19T15:57:24;9.80;99.90
20858;DHT22;10589;53.636;10.012;2023-11-19T15:59:50;9.80;99.90
20858;DHT22;10589;53.636;10.012;2023-11-19T16:02:16;9.80;99.90
20858;DHT22;10589;53.636;10.012;2023-11-19T16:04:43;9.80;99.90
20858;DHT22;10589;53.636;10.012;2023-11-19T16:07:16;9.90;99.90
20858;DHT22;10589;53.636;10.012;2023-11-19T16:09:41;10.00;99.90
20858;DHT22;10589;53.636;10.012;2023-11-19T16:12:07;10.00;99.90
20858;DHT22;10589;53.636;10.012;2023-11-19T16:14:36;10.00;99.90
20858;DHT22;10589;53.636;10.012;2023-11-19T16:17:02;10.10;99.90
20858;DHT22;10589;53.636;10.012;2023-11-19T16:19:28;10.10;99.90
20858;DHT22;10589;53.636;10.012;2023-11-19T16:21:53;10.10;99.90
20858;DHT22;10589;53.636;10.012;2023-11-19T16:24:19;10.20;99.90
20858;DHT22;10589;53.636;10.012;2023-11-19T16:26:45;10.30;99.90
20858;DHT22;10589;53.636;10.012;2023-11-19T16:29:11;10.30;99.90
20858;DHT22;10589;53.636;10.012;2023-11-19T16:31:36;10.30;99.90
20858;DHT22;10589;53.636;10.012;2023-11-19T16:34:03;10.30;99.90
20858;DHT22;10589;53.636;10.012;2023-11-19T16:36:30;10.30;99.90
20858;DHT22;10589;53.636;10.012;2023-11-19T16:38:55;10.20;99.90
20858;DHT22;10589;53.636;10.012;2023-11-19T16:41:21;10.30;99.90
20858;DHT22;10589;53.636;10.012;2023-11-19T16:43:48;10.40;99.90
20858;DHT22;10589;53.636;10.012;2023-11-19T16:46:15;10.40;99.90
20858;DHT22;10589;53.636;10.012;2023-11-19T16:48:41;10.40;99.90
20858;DHT22;10589;53.636;10.012;2023-11-19T16:51:13;10.40;99.90
20858;DHT22;10589;53.636;10.012;2023-11-19T16:53:44;10.40;99.90
20858;DHT22;10589;53.636;10.012;2023-11-19T16:56:10;10.30;99.90
20858;DHT22;10589;53.636;10.012;2023-11-19T16:58:36;10.30;99.90
20858;DHT22;10589;53.636;10.012;2023-11-19T17:01:02;10.40;99.90
20858;DHT22;10589;53.636;10.012;2023-11-19T17:03:28;10.40;99.90
20858;DHT22;10589;53.636;10.012;2023-11-19T17:05:53;10.40;99.90
20858;DHT22;10589;53.636;10.012;2023-11-19T17:08:20;10.30;99.90
20858;DHT22;10589;53.636;10.012;2023-11-19T17:10:45;10.30;99.90
20858;DHT22;10589;53.636;10.012;2023-11-19T17:13:12;10.20;99.90
20858;DHT22;10589;53.636;10.012;2023-11-19T17:15:38;10.20;99.90
20858;DHT22;10589;53.636;10.012;2023-11-19T17:18:04;10.20;99.90
20858;DHT22;10589;53.636;10.012;2023-11-19T17:20:30;10.20;99.90
20858;DHT22;10589;53.636;10.012;2023-11-19T17:22:56;10.20;99.90
20858;DHT22;10589;53.636;10.012;2023-11-19T17:25:21;10.10;99.90
20858;DHT22;10589;53.636;10.012;2023-11-19T17:27:48;10.10;99.90
20858;DHT22;10589;53.636;10.012;2023-11-19T17:30:14;10.00;99.90
20858;DHT22;10589;53.636;10.012;2023-11-19T17:32:39;10.00;99.90
20858;DHT22;10589;53.636;10.012;2023-11-19T17:35:06;9.90;99.90
20858;DHT22;10589;53.636;10.012;2023-11-19T17:37:32;9.90;99.90
20858;DHT22;10589;53.636;10.012;2023-11-19T17:39:58;9.90;99.90
20858;DHT22;10589;53.636;10.012;2023-11-19T17:42:23;9.90;99.90
20858;DHT22;10589;53.636;10.012;2023-11-19T17:44:49;9.90;99.90
20858;DHT22;10589;53.636;10.012;2023-11-19T17:47:15;9.80;99.90
20858;DHT22;10589;53.636;10.012;2023-11-19T17:49:40;9.90;99.90
20858;DHT22;10589;53.636;10.012;2023-11-19T17:52:06;9.90;99.90
20858;DHT22;10589;53.636;10.012;2023-11-19T17:54:32;9.80;99.90
20858;DHT22;10589;53.636;10.012;2023-11-19T17:56:58;9.80;99.90
20858;DHT22;10589;53.636;10.012;2023-11-19T17:59:23;9.90;99.90
20858;DHT22;10589;53.636;10.012;2023-11-19T18:01:53;9.80;99.90
20858;DHT22;10589;53.636;10.012;2023-11-19T18:04:25;9.70;99.90
20858;DHT22;10589;53.636;10.012;2023-11-19T18:06:51;9.70;99.90
20858;DHT22;10589;53.636;10.012;2023-11-19T18:09:17;9.60;99.90
20858;DHT22;10589;53.636;10.012;2023-11-19T18:11:43;9.60;99.90
20858;DHT22;10589;53.636;10.012;2023-11-19T18:14:11;9.60;99.90
20858;DHT22;10589;53.636;10.012;2023-11-19T18:16:36;9.60;99.90
20858;DHT22;10589;53.636;10.012;2023-11-19T18:19:02;9.60;99.90
20858;DHT22;10589;53.636;10.012;2023-11-19T18:21:30;9.60;99.90
20858;DHT22;10589;53.636;10.012;2023-11-19T18:23:58;9.60;99.90
20858;DHT22;10589;53.636;10.012;2023-11-19T18:26:24;9.70;99.90
20858;DHT22;10589;53.636;10.012;2023-11-19T18:28:49;9.80;99.90
20858;DHT22;10589;53.636;10.012;2023-11-19T18:31:15;9.80;99.90
20858;DHT22;10589;53.636;10.012;2023-11-19T18:33:41;9.90;99.90
20858;DHT22;10589;53.636;10.012;2023-11-19T18:36:07;9.80;99.90
20858;DHT22;10589;53.636;10.012;2023-11-19T18:38:33;9.90;99.90
20858;DHT22;10589;53.636;10.012;2023-11-19T18:40:58;9.90;99.90
20858;DHT22;10589;53.636;10.012;2023-11-19T18:43:24;9.90;99.90
20858;DHT22;10589;53.636;10.012;2023-11-19T18:45:51;10.00;99.90
20858;DHT22;10589;53.636;10.012;2023-11-19T18:48:17;10.00;99.90
20858;DHT22;10589;53.636;10.012;2023-11-19T18:50:43;10.00;99.90
20858;DHT22;10589;53.636;10.012;2023-11-19T18:53:09;10.00;99.90
20858;DHT22;10589;53.636;10.012;2023-11-19T18:55:35;10.00;99.90
20858;DHT22;10589;53.636;10.012;2023-11-19T18:58:00;10.00;99.90
20858;DHT22;10589;53.636;10.012;2023-11-19T19:00:26;10.00;99.90
20858;DHT22;10589;53.636;10.012;2023-11-19T19:02:51;10.10;99.90
20858;DHT22;10589;53.636;10.012;2023-11-19T19:05:17;10.10;99.90
20858;DHT22;10589;53.636;10.012;2023-11-19T19:07:43;10.10;99.90
20858;DHT22;10589;53.636;10.012;2023-11-19T19:10:09;10.20;99.90
20858;DHT22;10589;53.636;10.012;2023-11-19T19:12:42;10.10;99.90
20858;DHT22;10589;53.636;10.012;2023-11-19T19:15:09;10.20;99.90
20858;DHT22;10589;53.636;10.012;2023-11-19T19:17:39;10.10;99.90
20858;DHT22;10589;53.636;10.012;2023-11-19T19:20:09;10.20;99.90
20858;DHT22;10589;53.636;10.012;2023-11-19T19:22:35;10.20;99.90
20858;DHT22;10589;53.636;10.012;2023-11-19T19:25:01;10.20;99.90
20858;DHT22;10589;53.636;10.012;2023-11-19T19:27:26;10.20;99.90
20858;DHT22;10589;53.636;10.012;2023-11-19T19:29:52;10.20;99.90
20858;DHT22;10589;53.636;10.012;2023-11-19T19:32:18;10.30;99.90
20858;DHT22;10589;53.636;10.012;2023-11-19T19:34:43;10.30;99.90
20858;DHT22;10589;53.636;10.012;2023-11-19T19:37:09;10.20;99.90
20858;DHT22;10589;53.636;10.012;2023-11-19T19:39:35;10.40;99.90
20858;DHT22;10589;53.636;10.012;2023-11-19T19:42:01;10.30;99.90
20858;DHT22;10589;53.636;10.012;2023-11-19T19:44:29;10.40;99.90
20858;DHT22;10589;53.636;10.012;2023-11-19T19:46:55;10.30;99.90
20858;DHT22;10589;53.636;10.012;2023-11-19T19:49:21;10.30;99.90
20858;DHT22;10589;53.636;10.012;2023-11-19T19:51:46;10.20;99.90
20858;DHT22;10589;53.636;10.012;2023-11-19T19:54:12;10.30;99.90
20858;DHT22;10589;53.636;10.012;2023-11-19T19:56:39;10.30;99.90
20858;DHT22;10589;53.636;10.012;2023-11-19T19:59:05;10.30;99.90
20858;DHT22;10589;53.636;10.012;2023-11-19T20:01:31;10.30;99.90
20858;DHT22;10589;53.636;10.012;2023-11-19T20:03:56;10.30;99.90
20858;DHT22;10589;53.636;10.012;2023-11-19T20:06:22;10.30;99.90
20858;DHT22;10589;53.636;10.012;2023-11-19T20:08:50;10.40;99.90
20858;DHT22;10589;53.636;10.012;2023-11-19T20:11:16;10.40;99.90
20858;DHT22;10589;53.636;10.012;2023-11-19T20:13:42;10.40;99.90
20858;DHT22;10589;53.636;10.012;2023-11-19T20:16:09;10.30;99.90
20858;DHT22;10589;53.636;10.012;2023-11-19T20:18:35;10.30;99.90